Regional Weather

 

KCRX - Corinth, Mississippi, USA
Distance from station: SW 29mi, 47km
Updated: Sun, 12-Jul-2020 9:55am CDT
Overcast
Overcast
 Wind from NNW
Wind: NNW 3 mph , 6 km/h
Temperature: 82°F , 28°C
Heat Index: 90°F , 32°C
Dew Point: 77°F , 25°C
Humidity: 84%
Barometer: 29.82 inHg , 1009.8 hPa
Clouds: Overcast
Visibility: 10 miles , 16 km
Cloud details: Overcast 1800 ft
2020/07/12 14:55 KCRX 121455Z AUTO 33003KT 10SM OVC018 28/25 A2982 RMK AO2 LTG DSNT N-SE
KMKL - Jackson, Tennessee, USA
Distance from station: NW 46mi, 73km
Updated: Sun, 12-Jul-2020 10:15am CDT
Thunderstorm, Mostly cloudy
Thunderstorm, Mostly cloudy
 Wind from ESE
Wind: ESE 10 mph , 17 km/h, Gust: 21 mph , 33 km/h
Temperature: 72°F , 22°C
Dew Point: 68°F , 20°C
Humidity: 88%
Barometer: 29.87 inHg , 1011.5 hPa
Summary: Thunderstorm
Clouds: Mostly cloudy
Visibility: 10 miles , 16 km
Cloud details: Partly cloudy 1100 ft
Mostly cloudy 4600 ft
Mostly cloudy 6500 ft
2020/07/12 15:15 KMKL 121515Z 11009G18KT 10SM TS SCT011 BKN046 BKN065 22/20 A2987 RMK AO2 WSHFT 1455 LTG DSNT ALQDS RAE13 P0029 T02170200
 
KMSL - Muscle Shoal, Alabama, USA
Distance from station: SE 49mi, 79km
Updated: Sun, 12-Jul-2020 9:19am CDT
Thunderstorm rain, Mostly cloudy
Thunderstorm rain, Mostly cloudy
 Wind from NE
Wind: NE 6 mph , 9 km/h
Temperature: 77°F , 25°C
Dew Point: 72°F , 22°C
Humidity: 83%
Barometer: 29.87 inHg , 1011.5 hPa
Summary: Thunderstorm Rain
Clouds: Mostly cloudy
Visibility: 10 miles , 16 km
Cloud details: Few Clouds 2000 ft
Partly cloudy 3500 ft
Mostly cloudy 10000 ft
2020/07/12 14:19 KMSL 121419Z AUTO 05005KT 10SM TSRA FEW020 SCT035 BKN100 25/22 A2987 RMK AO2 LTG DSNT ALQDS RAB1357 TSB13 P0003 T02500217
KTUP - Tupelo, Mississippi, USA
Distance from station: SSW 72mi, 117km
Updated: Sun, 12-Jul-2020 9:53am CDT
Overcast
Overcast
 Wind from SW
Wind: SW 8 mph , 13 km/h
Temperature: 86°F , 30°C
Heat Index: 95°F , 35°C
Dew Point: 75°F , 24°C
Humidity: 70%
Barometer: 29.83 inHg , 1010.2 hPa
Clouds: Overcast
Visibility: 10 miles , 16 km
Cloud details: Overcast 2900 ft
2020/07/12 14:53 KTUP 121453Z 22007KT 10SM OVC029 30/24 A2983 RMK AO2 SLP094 T03000239 55009 $
 
KHSV - Huntsville, Alabama, USA
Distance from station: ESE 92mi, 148km
Updated: Sun, 12-Jul-2020 10:13am CDT
Thunderstorm rain, Mist, Overcast
Thunderstorm rain, Mist, Overcast
 Wind from NE
Wind: NE 25 mph , 41 km/h, Gust: 32 mph , 52 km/h
Temperature: 70°F , 21°C
Dew Point: 66°F , 19°C
Humidity: 88%
Barometer: 29.94 inHg , 1013.9 hPa
Summary: Thunderstorm rain, Mist
Clouds: Overcast
Visibility: 1 1/4 miles , 2 km
Cloud details: Partly cloudy 1500 ft
Mostly cloudy 2500 ft
Overcast 4200 ft
2020/07/12 15:13 KHSV 121513Z 04022G28KT 1 1/4SM R18R/3000VP6000FT TSRA BR SCT015CB BKN025 OVC042 21/19 A2994 RMK AO2 PK WND 05030/1501 LTG DSNT ALQDS OCNL LTGICCG SW-NE TS SW-NE MOV E P0045 T02060194 $
KBNA - Nashville, TN, USA
Distance from station: NE 97mi, 157km
Updated: Sun, 12-Jul-2020 9:53am CDT
Light thunderstorm, Rain, Mostly cloudy
Light thunderstorm, Rain, Mostly cloudy
 Wind from varies
Wind: varies 6 mph , 9 km/h, Gust: 26 mph , 43 km/h
Temperature: 70°F , 21°C
Dew Point: 66°F , 19°C
Humidity: 88%
Barometer: 29.87 inHg , 1011.5 hPa
Summary: Light thunderstorm, Rain
Clouds: Mostly cloudy
Visibility: 10 miles , 16 km
Cloud details: Few Clouds 4500 ft
Partly cloudy 9500 ft
Mostly cloudy 12000 ft
2020/07/12 14:53 KBNA 121453Z VRB05G23KT 10SM -TSRA FEW045 SCT095CB BKN120 21/19 A2987 RMK AO2 PK WND 17032/1406 SLP107 OCNL LTGIC SE-SW TS SE MOV SE CB DSNT SE-SW P0004 60022 T02110189 58014
 
KMEM - Memphis, Tennessee, USA
Distance from station: W 99mi, 159km
Updated: Sun, 12-Jul-2020 9:54am CDT
Mostly cloudy
Mostly cloudy
 Wind from WNW
Wind: WNW 12 mph , 19 km/h
Temperature: 84°F , 29°C
Heat Index: 89°F , 32°C
Dew Point: 72°F , 22°C
Humidity: 66%
Barometer: 29.83 inHg , 1010.2 hPa
Clouds: Mostly cloudy
Visibility: 10 miles , 16 km
Cloud details: Partly cloudy 3500 ft
Mostly cloudy 4500 ft
Mostly cloudy 18000 ft
2020/07/12 14:54 KMEM 121454Z 29010KT 10SM SCT035 BKN045 BKN180 29/22 A2983 RMK AO2 SLP097 T02940222 53007
KCKV - Clarksville, TN, USA
Distance from station: NNE 99mi, 159km
Updated: Sun, 12-Jul-2020 9:52am CDT
Few Clouds
Few Clouds
 Wind from SW
Wind: SW 6 mph , 9 km/h
Temperature: 68°F , 20°C
Dew Point: 66°F , 19°C
Humidity: 94%
Barometer: 29.86 inHg , 1011.2 hPa
Clouds: Few Clouds
Visibility: 10 miles , 16 km
Cloud details: Few Clouds 800 ft
2020/07/12 14:52 KCKV 121452Z AUTO 22005KT 10SM FEW008 20/19 A2986 RMK AO2 SLP106 60002 T02000194 55002 $
 
KCHA - Chattanooga, TN, USA
Distance from station: E 165mi, 265km
Updated: Sun, 12-Jul-2020 9:53am CDT
Light rain, Mostly cloudy
Light rain, Mostly cloudy
 Wind from WSW
Wind: WSW 6 mph , 9 km/h
Temperature: 73°F , 23°C
Dew Point: 66°F , 19°C
Humidity: 78%
Barometer: 29.95 inHg , 1014.2 hPa
Summary: Light rain
Clouds: Mostly cloudy
Visibility: 7 miles , 11 km
Cloud details: Partly cloudy 4400 ft
Mostly cloudy 7000 ft
Mostly cloudy 11000 ft
2020/07/12 14:53 KCHA 121453Z 25005KT 7SM -RA SCT044 BKN070 BKN110 23/19 A2995 RMK AO2 LTG DSNT W RAB35 SLP134 CB DSNT N AND W P0000 60000 T02280194 50005
KTYS - Knoxville, TN, USA
Distance from station: E 234mi, 377km
Updated: Sun, 12-Jul-2020 9:53am CDT
Overcast
Overcast
 Wind from S
Wind: S 12 mph , 19 km/h
Temperature: 77°F , 25°C
Dew Point: 63°F , 17°C
Humidity: 61%
Barometer: 29.89 inHg , 1012.2 hPa
Clouds: Overcast
Visibility: 10 miles , 16 km
Cloud details: Overcast 11000 ft
2020/07/12 14:53 KTYS 121453Z 18010KT 10SM OVC110 25/17 A2989 RMK AO2 SLP109 T02500167 58021

Refresh Page for latest data.